Time;durP1;ratioP1;P1;durP2;ratioP2;P2;SDS_P1;SDS_P2;PMS_P1;PMS_P2;Temp;Humidity;BMP_temperature;BMP_pressure;BME280_temperature;BME280_humidity;BME280_pressure;Samples;Min_cycle;Max_cycle;Signal;HPM_P1;HPM_P2
2023/01/24 00:00:06;;;;;;;2.75;1.48;;;3.70;89.10;;;;;;6134628;23;19997;-79
2023/01/24 00:02:32;;;;;;;3.03;1.50;;;3.70;89.10;;;;;;6158565;23;20001;-79
2023/01/24 00:04:57;;;;;;;2.92;1.70;;;3.80;89.10;;;;;;6161929;23;20015;-79
2023/01/24 00:07:23;;;;;;;2.75;1.65;;;3.70;89.10;;;;;;6133739;23;20079;-79
2023/01/24 00:09:49;;;;;;;3.50;1.58;;;3.70;89.10;;;;;;6186438;23;20143;-79
2023/01/24 00:12:14;;;;;;;3.03;1.45;;;3.70;89.10;;;;;;6159467;23;20040;-79
2023/01/24 00:14:40;;;;;;;2.63;1.67;;;3.70;89.10;;;;;;6161403;23;20040;-79
2023/01/24 00:17:07;;;;;;;3.88;1.70;;;3.70;89.10;;;;;;6138847;23;19997;-79
2023/01/24 00:19:33;;;;;;;3.17;1.80;;;3.70;89.10;;;;;;6161881;23;20005;-79
2023/01/24 00:21:59;;;;;;;3.72;1.73;;;3.70;89.10;;;;;;6137051;23;20001;-79
2023/01/24 00:24:26;;;;;;;2.92;1.60;;;3.70;89.10;;;;;;6161321;23;20001;-79
2023/01/24 00:26:52;;;;;;;2.00;1.20;;;3.70;89.10;;;;;;6159633;23;20009;-78
2023/01/24 00:29:23;;;;;;;3.53;1.60;;;3.70;89.10;;;;;;6155039;23;20011;-79
2023/01/24 00:31:49;;;;;;;1.95;1.33;;;3.70;89.10;;;;;;6156276;23;20422;-79
2023/01/24 00:34:15;;;;;;;2.92;1.63;;;3.70;89.10;;;;;;6165622;23;20032;-79
2023/01/24 00:36:40;;;;;;;2.97;1.45;;;3.70;89.10;;;;;;6188567;23;20068;-79
2023/01/24 00:39:06;;;;;;;2.08;1.15;;;3.70;89.10;;;;;;6187278;23;20004;-79
2023/01/24 00:41:32;;;;;;;2.65;1.40;;;3.70;89.20;;;;;;6159692;23;19997;-79
2023/01/24 00:43:57;;;;;;;2.88;1.38;;;3.60;89.10;;;;;;6160932;23;20005;-79
2023/01/24 00:46:23;;;;;;;2.92;1.40;;;3.70;89.20;;;;;;6135515;23;20059;-79
2023/01/24 00:48:49;;;;;;;3.03;1.40;;;3.70;89.20;;;;;;6160001;23;20008;-79
2023/01/24 00:51:14;;;;;;;2.42;1.35;;;3.70;89.20;;;;;;6162645;23;20012;-79
2023/01/24 00:53:40;;;;;;;2.03;1.20;;;3.60;89.10;;;;;;6131387;23;20013;-79
2023/01/24 00:56:06;;;;;;;2.95;1.25;;;3.60;89.10;;;;;;6133935;23;20020;-79
2023/01/24 00:58:33;;;;;;;2.05;1.20;;;3.70;89.10;;;;;;6133838;23;20013;-79
2023/01/24 01:01:00;;;;;;;2.42;1.40;;;3.70;89.10;;;;;;6131866;23;19997;-79
2023/01/24 01:03:26;;;;;;;2.67;1.45;;;3.70;89.10;;;;;;6133420;23;20009;-79
2023/01/24 01:06:02;;;;;;;2.95;1.40;;;3.70;89.20;;;;;;6183713;23;20429;-79
2023/01/24 01:08:28;;;;;;;2.70;1.40;;;3.80;89.20;;;;;;6159255;23;20009;-79
2023/01/24 01:10:53;;;;;;;1.80;1.02;;;3.70;89.10;;;;;;6157493;23;20333;-79
2023/01/24 01:13:19;;;;;;;2.15;1.33;;;3.70;89.10;;;;;;6159736;23;20001;-79
2023/01/24 01:15:45;;;;;;;3.03;1.63;;;3.60;89.10;;;;;;6183666;23;20001;-79
2023/01/24 01:18:10;;;;;;;2.08;1.10;;;3.70;89.10;;;;;;6183949;23;20009;-79
2023/01/24 01:20:36;;;;;;;2.42;1.40;;;3.80;89.20;;;;;;6160923;23;20029;-79
2023/01/24 01:23:02;;;;;;;2.97;1.50;;;3.60;89.10;;;;;;6187119;23;19997;-78
2023/01/24 01:25:28;;;;;;;3.10;1.40;;;3.60;89.10;;;;;;6161496;23;20036;-79
2023/01/24 01:27:54;;;;;;;3.47;1.50;;;3.60;89.10;;;;;;6171482;23;20025;-80
2023/01/24 01:30:20;;;;;;;2.15;1.20;;;3.60;89.10;;;;;;6184902;23;20460;-79
2023/01/24 01:32:46;;;;;;;2.25;1.10;;;3.60;89.00;;;;;;6184911;23;20099;-79
2023/01/24 01:35:12;;;;;;;2.50;1.40;;;3.70;89.10;;;;;;6162842;23;20330;-79
2023/01/24 01:37:38;;;;;;;2.03;1.17;;;3.70;89.10;;;;;;6166952;23;20009;-79
2023/01/24 01:40:04;;;;;;;2.47;1.38;;;3.60;89.00;;;;;;6138706;23;20017;-79
2023/01/24 01:42:55;;;;;;;2.75;1.60;;;3.60;89.00;;;;;;6138925;23;19998;-79
2023/01/24 01:45:42;;;;;;;3.03;1.42;;;3.60;89.00;;;;;;6119514;23;20091;-80
2023/01/24 01:48:28;;;;;;;2.03;1.23;;;3.60;89.00;;;;;;6127742;23;20005;-78
2023/01/24 01:51:03;;;;;;;3.70;1.80;;;3.60;88.90;;;;;;6135774;23;20005;-79
2023/01/24 01:53:33;;;;;;;3.25;1.55;;;3.60;89.00;;;;;;6191110;23;20009;-79
2023/01/24 01:56:06;;;;;;;3.22;1.67;;;3.60;88.90;;;;;;6139240;23;20009;-79
2023/01/24 01:58:33;;;;;;;3.65;1.70;;;3.60;89.00;;;;;;6162417;23;20449;-80
2023/01/24 02:00:58;;;;;;;3.10;1.67;;;3.50;88.90;;;;;;6185834;23;19997;-79
2023/01/24 02:03:37;;;;;;;2.95;1.50;;;3.60;88.90;;;;;;6133089;23;20044;-79
2023/01/24 02:06:05;;;;;;;3.05;1.65;;;3.60;89.00;;;;;;6165769;23;20009;-79
2023/01/24 02:08:31;;;;;;;3.17;1.73;;;3.50;89.00;;;;;;6160361;23;19988;-79
2023/01/24 02:13:39;;;;;;;2.50;1.50;;;3.50;89.00;;;;;;6164329;23;20414;-79
2023/01/24 02:16:06;;;;;;;3.35;1.55;;;3.50;89.00;;;;;;6162646;23;20321;-79
2023/01/24 02:18:37;;;;;;;2.72;1.70;;;3.50;89.00;;;;;;6161042;23;20001;-79
2023/01/24 02:21:06;;;;;;;2.92;1.45;;;3.50;89.00;;;;;;6133946;23;20529;-79
2023/01/24 02:23:55;;;;;;;3.08;1.70;;;3.50;89.10;;;;;;6160187;23;20005;-79
2023/01/24 02:26:23;;;;;;;2.95;1.60;;;3.50;89.10;;;;;;6140442;23;20005;-79
2023/01/24 02:28:54;;;;;;;2.95;1.60;;;3.50;89.10;;;;;;6160084;23;20013;-79
2023/01/24 02:31:20;;;;;;;3.42;1.58;;;3.50;89.20;;;;;;6138310;23;20326;-79
2023/01/24 02:33:45;;;;;;;4.20;1.63;;;3.50;89.20;;;;;;6185704;23;20012;-79
2023/01/24 02:36:24;;;;;;;2.22;1.33;;;3.40;89.10;;;;;;6161069;23;20006;-79
2023/01/24 02:38:58;;;;;;;2.25;1.30;;;3.50;89.20;;;;;;6158826;23;20002;-79
2023/01/24 02:41:29;;;;;;;1.92;1.38;;;3.40;89.20;;;;;;6162722;23;20029;-79
2023/01/24 02:44:00;;;;;;;3.10;1.48;;;3.40;89.20;;;;;;6193564;23;20062;-79
2023/01/24 02:46:29;;;;;;;2.85;1.52;;;3.40;89.20;;;;;;6164021;23;20005;-79
2023/01/24 02:48:55;;;;;;;1.52;1.10;;;3.30;89.20;;;;;;6159031;23;20063;-79
2023/01/24 02:53:59;;;;;;;3.80;1.77;;;3.40;89.30;;;;;;6190522;23;20025;-79
2023/01/24 02:59:10;;;;;;;2.95;1.30;;;3.40;89.30;;;;;;6188041;23;20005;-79
2023/01/24 03:01:35;;;;;;;2.22;1.30;;;3.50;89.40;;;;;;6166299;23;20028;-79
2023/01/24 03:04:01;;;;;;;4.05;2.00;;;3.30;89.30;;;;;;6141609;23;20001;-79
2023/01/24 03:06:27;;;;;;;2.50;1.50;;;3.40;89.30;;;;;;6192287;23;20252;-79
2023/01/24 03:08:52;;;;;;;2.45;1.40;;;3.40;89.30;;;;;;6139617;23;20012;-79
2023/01/24 03:11:18;;;;;;;3.40;1.40;;;3.30;89.30;;;;;;6161751;23;19997;-79
2023/01/24 03:35:06;;;;;;;3.42;1.75;;;3.20;89.40;;;;;;6162987;23;20021;-79
2023/01/24 03:40:16;;;;;;;1.92;1.35;;;3.30;89.50;;;;;;6162204;23;20032;-79
2023/01/24 03:42:49;;;;;;;2.33;1.42;;;3.30;89.50;;;;;;6161441;23;20001;-79
2023/01/24 03:45:17;;;;;;;3.03;1.55;;;3.30;89.50;;;;;;6187328;23;20076;-78
2023/01/24 03:47:55;;;;;;;2.10;1.15;;;3.20;89.40;;;;;;6162650;23;20024;-79
2023/01/24 03:53:08;;;;;;;2.47;1.30;;;3.20;89.50;;;;;;6186477;23;20013;-79
2023/01/24 03:55:34;;;;;;;3.30;1.73;;;3.20;89.50;;;;;;6136443;23;20020;-79
2023/01/24 03:58:00;;;;;;;2.80;1.38;;;3.20;89.50;;;;;;6186071;23;20032;-78
2023/01/24 04:00:26;;;;;;;1.83;1.20;;;3.20;89.50;;;;;;6159169;23;20008;-78
2023/01/24 04:02:53;;;;;;;3.08;1.77;;;3.30;89.70;;;;;;6158850;23;20429;-79
2023/01/24 04:05:20;;;;;;;3.15;1.35;;;3.20;89.60;;;;;;6134864;23;20008;-78
2023/01/24 04:07:46;;;;;;;2.28;1.27;;;3.20;89.60;;;;;;6160090;23;20472;-78
2023/01/24 04:10:13;;;;;;;3.30;1.77;;;3.20;89.70;;;;;;6162069;23;20425;-78
2023/01/24 04:12:40;;;;;;;3.15;1.40;;;3.20;89.70;;;;;;6189485;23;20017;-79
2023/01/24 04:15:06;;;;;;;4.10;2.03;;;3.20;89.60;;;;;;6139998;23;20442;-78
2023/01/24 04:17:32;;;;;;;3.13;1.65;;;3.20;89.60;;;;;;6162181;23;19997;-79
2023/01/24 04:19:57;;;;;;;3.15;1.67;;;3.10;89.60;;;;;;6138551;23;20024;-79
2023/01/24 04:22:23;;;;;;;6.38;2.58;;;3.10;89.60;;;;;;6137474;23;20036;-79
2023/01/24 04:24:48;;;;;;;3.25;1.77;;;3.10;89.60;;;;;;6161947;23;20009;-79
2023/01/24 04:27:14;;;;;;;3.50;1.83;;;3.10;89.60;;;;;;6188567;23;20001;-79
2023/01/24 04:29:40;;;;;;;2.95;1.70;;;3.10;89.60;;;;;;6191368;23;20087;-78
2023/01/24 04:32:06;;;;;;;5.05;2.38;;;3.00;89.60;;;;;;6189855;23;20005;-78
2023/01/24 04:34:32;;;;;;;3.05;1.60;;;3.00;89.60;;;;;;6135570;23;20043;-79
2023/01/24 04:36:58;;;;;;;4.47;1.75;;;3.00;89.70;;;;;;6160181;23;20477;-79
2023/01/24 04:39:24;;;;;;;3.97;2.08;;;3.00;89.70;;;;;;6160313;23;20041;-79
2023/01/24 04:41:49;;;;;;;3.88;1.88;;;3.00;89.60;;;;;;6161832;23;20370;-79
2023/01/24 04:44:15;;;;;;;2.95;1.58;;;3.00;89.60;;;;;;6134705;23;20435;-78
2023/01/24 04:46:40;;;;;;;3.28;1.70;;;3.00;89.70;;;;;;6135799;23;20120;-79
2023/01/24 04:49:06;;;;;;;3.35;1.60;;;3.00;89.70;;;;;;6139032;23;20036;-79
2023/01/24 04:51:32;;;;;;;3.72;1.80;;;3.00;89.70;;;;;;6162519;23;20001;-79
2023/01/24 04:53:57;;;;;;;3.95;1.75;;;3.00;89.60;;;;;;6138866;23;20065;-78
2023/01/24 04:56:23;;;;;;;3.28;1.75;;;3.00;89.70;;;;;;6139117;23;20033;-78
2023/01/24 04:58:48;;;;;;;3.55;1.75;;;3.00;89.70;;;;;;6135430;23;20512;-79
2023/01/24 05:01:14;;;;;;;4.32;1.90;;;3.00;89.70;;;;;;6161241;23;20025;-79
2023/01/24 05:03:40;;;;;;;2.60;1.67;;;3.00;89.70;;;;;;6190244;23;20012;-78
2023/01/24 05:06:05;;;;;;;4.53;2.20;;;2.90;89.60;;;;;;6187532;23;20024;-78
2023/01/24 05:08:31;;;;;;;4.00;2.08;;;2.90;89.60;;;;;;6189585;23;20001;-79
2023/01/24 05:11:02;;;;;;;3.97;2.08;;;2.90;89.70;;;;;;6142782;23;20001;-78
2023/01/24 05:13:27;;;;;;;4.47;2.33;;;2.90;89.70;;;;;;6190978;23;20068;-78
2023/01/24 05:15:53;;;;;;;4.13;2.00;;;2.90;89.70;;;;;;6142036;23;20017;-78
2023/01/24 05:18:19;;;;;;;4.00;2.13;;;2.90;89.70;;;;;;6145445;23;20032;-78
2023/01/24 05:20:45;;;;;;;3.67;1.73;;;2.90;89.70;;;;;;6139198;23;20005;-79
2023/01/24 05:23:10;;;;;;;3.55;1.85;;;2.90;89.70;;;;;;6163071;23;19998;-78
2023/01/24 05:25:36;;;;;;;2.95;1.60;;;2.90;89.70;;;;;;6168052;23;20064;-79
2023/01/24 05:28:02;;;;;;;3.30;1.70;;;2.90;89.80;;;;;;6145822;23;20060;-79
2023/01/24 05:30:27;;;;;;;3.28;2.00;;;2.90;89.70;;;;;;6146188;23;20013;-79
2023/01/24 05:32:58;;;;;;;3.88;2.03;;;2.90;89.80;;;;;;6190531;23;20009;-80
2023/01/24 05:35:24;;;;;;;3.38;1.90;;;2.80;89.70;;;;;;6166329;23;20024;-80
2023/01/24 05:37:50;;;;;;;3.10;1.70;;;2.90;89.80;;;;;;6139686;23;19997;-78
2023/01/24 05:40:16;;;;;;;3.58;1.98;;;2.90;89.80;;;;;;6141345;23;20024;-78
2023/01/24 05:42:42;;;;;;;3.72;1.90;;;2.90;89.80;;;;;;6144010;23;19997;-78
2023/01/24 05:45:09;;;;;;;3.03;1.67;;;2.90;89.80;;;;;;6164818;23;20001;-78
2023/01/24 05:47:35;;;;;;;3.47;1.80;;;2.90;89.80;;;;;;6140996;23;20006;-79
2023/01/24 05:50:01;;;;;;;3.03;1.85;;;2.90;89.80;;;;;;6166380;23;20011;-78
2023/01/24 05:52:27;;;;;;;4.32;2.28;;;2.90;89.80;;;;;;6167504;23;20009;-79
2023/01/24 05:54:53;;;;;;;3.22;1.75;;;2.90;89.80;;;;;;6139531;23;20017;-78
2023/01/24 05:57:19;;;;;;;3.67;1.95;;;2.80;89.70;;;;;;6139357;23;20005;-78
2023/01/24 05:59:45;;;;;;;2.92;1.42;;;2.90;89.70;;;;;;6161015;23;19997;-79
2023/01/24 06:02:10;;;;;;;4.22;1.73;;;2.90;89.80;;;;;;6160231;23;20559;-78
2023/01/24 06:04:36;;;;;;;2.28;1.48;;;2.90;89.80;;;;;;6136936;23;20030;-78
2023/01/24 06:07:02;;;;;;;2.50;1.35;;;2.90;89.80;;;;;;6165453;23;20005;-79
2023/01/24 06:09:27;;;;;;;3.80;1.73;;;2.90;89.80;;;;;;6137863;23;20005;-79
2023/01/24 06:11:53;;;;;;;2.85;1.80;;;2.90;89.80;;;;;;6140612;23;20370;-80
2023/01/24 06:14:19;;;;;;;3.78;1.80;;;2.90;89.80;;;;;;6139427;23;20005;-80
2023/01/24 06:16:45;;;;;;;3.15;1.75;;;2.90;89.70;;;;;;6141015;23;20325;-79
2023/01/24 06:19:12;;;;;;;2.65;1.60;;;2.90;89.80;;;;;;6142226;23;20032;-78
2023/01/24 06:22:01;;;;;;;3.78;2.00;;;2.90;89.80;;;;;;6187969;23;20004;-81
2023/01/24 06:24:27;;;;;;;4.03;2.10;;;2.90;89.80;;;;;;6191671;23;20088;-81
2023/01/24 06:26:54;;;;;;;5.50;2.80;;;2.90;89.80;;;;;;6193973;23;20001;-80
2023/01/24 06:29:20;;;;;;;4.25;2.13;;;2.90;89.80;;;;;;6191724;23;20008;-80
2023/01/24 06:32:17;;;;;;;5.03;2.42;;;2.90;89.80;;;;;;6165469;23;20448;-80
2023/01/24 06:35:17;;;;;;;3.97;1.80;;;2.90;89.80;;;;;;6145734;23;20015;-81
2023/01/24 06:37:48;;;;;;;5.03;2.20;;;2.90;89.80;;;;;;6165185;23;20009;-80
2023/01/24 06:40:16;;;;;;;;;;;2.90;89.80;;;;;;6192232;23;20005;-81
2023/01/24 06:42:42;;;;;;;4.70;2.28;;;2.80;89.70;;;;;;6162039;23;19901;-81
2023/01/24 06:45:08;;;;;;;4.30;2.38;;;2.90;89.80;;;;;;6164011;23;20001;-81
2023/01/24 06:47:34;;;;;;;5.00;2.50;;;2.80;89.60;;;;;;6163539;23;20020;-80
2023/01/24 06:49:59;;;;;;;6.20;3.25;;;2.70;89.60;;;;;;6140317;23;20096;-80
2023/01/24 06:52:25;;;;;;;5.55;2.63;;;2.80;89.70;;;;;;6164313;23;20005;-81
2023/01/24 06:54:51;;;;;;;4.88;2.60;;;2.80;89.80;;;;;;6157204;23;20092;-80
2023/01/24 06:57:16;;;;;;;4.35;2.35;;;2.80;89.80;;;;;;6161846;23;20016;-82
2023/01/24 06:59:42;;;;;;;5.60;3.10;;;2.80;89.80;;;;;;6188814;23;19997;-81
2023/01/24 07:02:10;;;;;;;4.28;2.38;;;2.70;89.70;;;;;;6192255;23;20061;-80
2023/01/24 07:04:36;;;;;;;6.07;2.67;;;2.70;89.70;;;;;;6142997;23;20028;-80
2023/01/24 07:07:03;;;;;;;5.20;2.70;;;2.70;89.70;;;;;;6141433;23;20067;-80
2023/01/24 07:09:28;;;;;;;5.10;2.50;;;2.70;89.80;;;;;;6167226;23;20005;-80
2023/01/24 07:11:57;;;;;;;4.70;2.58;;;2.70;89.80;;;;;;6163082;23;20001;-80
2023/01/24 07:14:23;;;;;;;3.80;2.17;;;2.70;89.80;;;;;;6163335;23;20047;-79
2023/01/24 07:16:50;;;;;;;4.70;2.38;;;2.70;89.80;;;;;;6158666;23;20337;-79
2023/01/24 07:19:21;;;;;;;3.83;2.28;;;2.70;89.80;;;;;;6163259;23;20512;-79
2023/01/24 07:21:48;;;;;;;3.75;2.08;;;2.70;89.80;;;;;;6166089;23;20001;-79
2023/01/24 07:24:18;;;;;;;4.82;2.17;;;2.70;89.80;;;;;;6140470;23;20016;-79
2023/01/24 07:26:44;;;;;;;3.45;1.83;;;2.90;89.90;;;;;;6193006;23;20001;-79
2023/01/24 07:29:11;;;;;;;3.25;1.88;;;2.70;89.80;;;;;;6162262;23;20005;-79
2023/01/24 07:31:36;;;;;;;4.03;1.75;;;2.70;89.80;;;;;;6163724;23;20005;-79
2023/01/24 07:34:02;;;;;;;4.25;2.03;;;2.80;89.90;;;;;;6169379;23;20016;-79
2023/01/24 07:51:12;;;;;;;3.38;1.55;;;2.70;89.70;;;;;;6087071;23;20025;-78
2023/01/24 07:53:38;;;;;;;2.15;1.27;;;2.70;89.70;;;;;;6003799;23;20016;-78
2023/01/24 07:56:04;;;;;;;2.88;1.70;;;2.70;89.70;;;;;;5983822;23;20020;-77
2023/01/24 07:58:31;;;;;;;3.30;1.80;;;2.70;89.80;;;;;;6007198;23;20040;-77
2023/01/24 08:00:57;;;;;;;3.92;2.00;;;2.70;89.80;;;;;;6007815;23;20016;-77
2023/01/24 08:10:05;;;;;;;3.72;1.67;;;2.70;89.90;;;;;;5893032;24;20078;-82
2023/01/24 08:12:31;;;;;;;3.38;1.73;;;2.70;89.80;;;;;;5879806;24;20025;-76
2023/01/24 08:15:23;;;;;;;4.55;2.30;;;2.70;89.80;;;;;;5877772;24;20463;-80
2023/01/24 08:17:52;;;;;;;2.80;1.60;;;2.80;89.90;;;;;;5872322;24;20454;-77
2023/01/24 08:23:58;;;;;;;4.18;1.80;;;2.70;89.80;;;;;;5823905;24;20023;-77
2023/01/24 08:26:30;;;;;;;3.53;1.70;;;2.70;89.70;;;;;;5840358;24;20018;-77
2023/01/24 08:29:04;;;;;;;3.20;1.90;;;2.70;89.70;;;;;;5799279;24;20388;-80
2023/01/24 08:35:36;;;;;;;3.72;1.83;;;2.80;89.80;;;;;;5793349;24;20023;-80
2023/01/24 08:38:16;;;;;;;3.08;1.60;;;2.80;89.70;;;;;;5868721;24;20059;-82
2023/01/24 08:40:45;;;;;;;4.07;2.05;;;2.70;89.70;;;;;;5790069;24;20112;-80
2023/01/24 08:43:43;;;;;;;3.30;1.95;;;2.70;89.70;;;;;;5764962;24;20039;-79
2023/01/24 09:01:11;;;;;;;2.75;1.60;;;2.90;89.60;;;;;;5660826;25;20088;-80
2023/01/24 09:03:40;;;;;;;3.22;1.60;;;2.80;89.50;;;;;;5562045;25;20031;-79
2023/01/24 09:10:03;;;;;;;3.58;1.50;;;2.90;89.60;;;;;;5536962;25;20087;-79
2023/01/24 09:12:42;;;;;;;3.92;1.80;;;2.80;89.50;;;;;;5536865;25;20061;-79
2023/01/24 09:16:05;;;;;;;3.50;1.73;;;2.80;89.50;;;;;;5559832;25;20042;-81
2023/01/24 09:22:33;;;;;;;3.00;1.67;;;2.90;89.60;;;;;;5584823;25;20027;-83
2023/01/24 09:43:42;;;;;;;2.47;1.45;;;2.90;89.40;;;;;;5514895;25;20073;-80
2023/01/24 09:50:47;;;;;;;3.90;2.10;;;2.90;89.40;;;;;;5523417;25;20182;-78
2023/01/24 10:01:33;;;;;;;;;;;2.90;89.30;;;;;;5610005;25;20045;-77
2023/01/24 10:04:01;;;;;;;3.33;1.77;;;2.90;89.20;;;;;;5587765;25;19931;-77
2023/01/24 10:06:29;;;;;;;3.45;1.70;;;3.00;89.10;;;;;;5580891;25;20033;-76
2023/01/24 10:09:31;;;;;;;2.47;1.52;;;3.00;89.50;;;;;;5590874;25;20034;-78
2023/01/24 10:12:39;;;;;;;2.47;1.60;;;3.00;89.20;;;;;;5646354;25;20096;-77
2023/01/24 10:15:52;;;;;;;4.25;2.15;;;3.00;89.20;;;;;;5634750;25;20536;-79
2023/01/24 10:18:41;;;;;;;3.67;1.80;;;3.20;89.30;;;;;;5659790;25;20021;-77
2023/01/24 10:25:15;;;;;;;3.28;1.77;;;3.00;89.10;;;;;;5596585;25;20034;-75
2023/01/24 10:31:44;;;;;;;3.97;1.73;;;3.10;89.20;;;;;;5763510;24;20045;-78
2023/01/24 10:34:16;;;;;;;3.25;1.52;;;3.10;89.10;;;;;;5736136;24;20112;-77
2023/01/24 10:36:49;;;;;;;4.20;2.10;;;3.10;89.10;;;;;;5741650;24;20032;-76
2023/01/24 10:39:17;;;;;;;4.18;2.10;;;3.10;89.10;;;;;;5825809;24;20019;-76
2023/01/24 10:41:42;;;;;;;2.45;1.42;;;3.20;89.20;;;;;;5820999;24;20059;-75
2023/01/24 10:44:26;;;;;;;2.90;1.50;;;3.20;89.20;;;;;;5870468;24;20018;-75
2023/01/24 10:47:23;;;;;;;2.97;1.52;;;3.10;89.20;;;;;;5870035;24;20022;-77
2023/01/24 10:49:58;;;;;;;3.40;1.63;;;3.20;89.30;;;;;;5833810;24;20019;-76
2023/01/24 10:52:25;;;;;;;2.50;1.52;;;3.20;89.30;;;;;;5794311;24;20023;-76
2023/01/24 10:54:55;;;;;;;4.78;1.88;;;3.20;89.80;;;;;;5847495;24;20061;-75
2023/01/24 10:57:38;;;;;;;3.45;2.00;;;3.20;89.30;;;;;;5952703;24;20017;-80
2023/01/24 11:00:26;;;;;;;2.85;1.55;;;3.30;89.30;;;;;;5955837;24;20643;-75
2023/01/24 11:04:08;;;;;;;2.58;1.58;;;3.20;89.10;;;;;;5933193;24;20019;-75
2023/01/24 11:06:41;;;;;;;3.33;1.60;;;3.30;89.20;;;;;;5942698;23;20393;-75
2023/01/24 11:09:30;;;;;;;2.85;1.75;;;3.20;89.30;;;;;;5957350;24;20088;-76
2023/01/24 11:12:36;;;;;;;3.25;1.70;;;3.20;89.30;;;;;;5933706;24;20027;-76
2023/01/24 11:15:40;;;;;;;2.53;1.30;;;3.30;89.20;;;;;;5923989;24;20036;-75
2023/01/24 11:18:20;;;;;;;2.85;1.63;;;3.30;89.20;;;;;;5919906;24;20013;-74
2023/01/24 11:20:47;;;;;;;2.90;1.67;;;3.30;89.20;;;;;;5821489;24;20022;-74
2023/01/24 11:23:27;;;;;;;2.85;1.58;;;3.30;89.30;;;;;;5845696;24;20023;-75
2023/01/24 11:30:11;;;;;;;3.03;1.55;;;3.30;89.30;;;;;;5737295;24;20932;-78
2023/01/24 11:33:50;;;;;;;1.92;1.20;;;3.30;89.20;;;;;;5755732;24;20024;-78
2023/01/24 11:36:59;;;;;;;3.15;1.55;;;3.30;89.20;;;;;;5748411;24;20339;-76
2023/01/24 11:39:43;;;;;;;2.97;1.48;;;3.40;89.00;;;;;;5818543;24;20073;-75
2023/01/24 11:42:56;;;;;;;4.20;1.60;;;3.40;89.00;;;;;;5812794;24;20080;-76
2023/01/24 11:46:07;;;;;;;3.15;1.50;;;3.40;89.10;;;;;;5788750;24;20496;-79
2023/01/24 11:49:01;;;;;;;2.17;1.33;;;3.40;89.00;;;;;;5770213;24;20374;-77
2023/01/24 11:52:45;;;;;;;2.53;1.48;;;3.40;89.00;;;;;;5780338;24;20026;-76
2023/01/24 11:59:51;;;;;;;1.92;1.10;;;3.40;88.90;;;;;;5807586;24;20373;-78
2023/01/24 12:33:04;;;;;;;2.88;1.52;;;3.60;88.60;;;;;;5682294;25;20072;-76
2023/01/24 12:35:41;;;;;;;3.45;1.92;;;3.60;88.50;;;;;;5660166;25;20034;-75
2023/01/24 12:42:59;;;;;;;2.20;1.50;;;3.60;88.60;;;;;;5759196;24;20047;-78
2023/01/24 12:45:37;;;;;;;2.13;1.40;;;3.50;88.50;;;;;;5718675;24;20058;-76
2023/01/24 12:48:27;;;;;;;2.45;1.42;;;3.50;88.60;;;;;;5741554;24;20027;-76
2023/01/24 12:51:16;;;;;;;3.08;1.60;;;3.50;88.70;;;;;;5743923;24;20044;-75
2023/01/24 12:53:59;;;;;;;4.03;1.83;;;3.50;88.60;;;;;;5746095;24;20051;-75
2023/01/24 12:56:46;;;;;;;2.95;1.52;;;3.60;88.70;;;;;;5722325;25;20012;-76
2023/01/24 12:59:18;;;;;;;2.78;1.55;;;3.50;88.70;;;;;;5742396;24;20023;-76
2023/01/24 13:02:16;;;;;;;3.17;1.55;;;3.50;88.60;;;;;;5809056;24;20032;-76
2023/01/24 13:05:50;;;;;;;3.47;1.90;;;3.60;88.70;;;;;;5870470;24;20402;-80
2023/01/24 13:16:35;;;;;;;3.17;1.67;;;3.50;88.60;;;;;;5859274;24;20029;-76
2023/01/24 13:19:26;;;;;;;3.13;1.60;;;3.40;88.50;;;;;;5817205;24;20440;-76
2023/01/24 13:23:05;;;;;;;2.63;1.60;;;3.40;88.60;;;;;;5920436;24;20017;-76
2023/01/24 13:30:03;;;;;;;;;;;3.50;88.80;;;;;;5894327;24;20405;-78
2023/01/24 13:32:38;;;;;;;1.92;1.15;;;3.50;88.70;;;;;;5894954;24;19968;-76
2023/01/24 13:35:19;;;;;;;2.63;1.33;;;3.40;88.50;;;;;;5866910;24;20033;-78
2023/01/24 13:37:56;;;;;;;2.17;1.30;;;3.50;88.60;;;;;;5852044;24;20374;-78
2023/01/24 13:40:30;;;;;;;2.15;1.40;;;3.40;88.60;;;;;;5836265;24;20023;-78
2023/01/24 13:42:57;;;;;;;2.00;1.10;;;3.50;88.70;;;;;;5839558;24;20103;-78
2023/01/24 13:45:46;;;;;;;2.22;1.25;;;3.50;88.70;;;;;;5838021;24;20054;-78
2023/01/24 13:48:45;;;;;;;1.38;0.98;;;3.60;88.80;;;;;;5812273;24;20015;-77
2023/01/24 13:51:32;;;;;;;2.22;1.20;;;3.50;88.80;;;;;;5942129;24;20040;-78
2023/01/24 13:54:05;;;;;;;1.88;1.23;;;3.50;88.70;;;;;;5920573;24;20074;-78
2023/01/24 13:56:32;;;;;;;2.22;1.20;;;3.50;88.70;;;;;;5921203;24;20014;-78
2023/01/24 13:59:10;;;;;;;2.25;1.20;;;3.50;88.60;;;;;;5927207;24;20021;-78
2023/01/24 14:02:22;;;;;;;2.67;1.35;;;3.50;88.80;;;;;;5918839;24;20021;-78
2023/01/24 14:05:14;;;;;;;2.20;1.23;;;3.50;88.80;;;;;;5880931;23;20033;-78
2023/01/24 14:07:48;;;;;;;1.77;1.10;;;3.40;88.70;;;;;;6009935;23;20027;-78
2023/01/24 14:10:18;;;;;;;2.47;1.33;;;3.50;88.70;;;;;;6007074;23;20019;-76
2023/01/24 14:16:52;;;;;;;1.38;1.00;;;3.60;88.90;;;;;;5950384;24;20031;-78
2023/01/24 14:27:28;;;;;;;2.55;1.20;;;3.50;88.80;;;;;;5899739;24;20028;-78
2023/01/24 14:30:31;;;;;;;2.33;1.38;;;3.30;88.70;;;;;;5860864;24;20034;-81
2023/01/24 14:33:03;;;;;;;2.30;1.23;;;3.30;88.70;;;;;;5929721;24;20028;-78
2023/01/24 14:35:47;;;;;;;2.03;1.30;;;3.40;88.80;;;;;;5913845;24;20032;-77
2023/01/24 14:38:16;;;;;;;1.42;0.98;;;3.30;88.70;;;;;;5952100;24;20040;-77
2023/01/24 14:40:49;;;;;;;1.10;0.90;;;3.30;88.90;;;;;;5953026;24;20020;-80
2023/01/24 14:43:17;;;;;;;1.50;1.15;;;3.30;88.90;;;;;;5953373;24;20016;-77
2023/01/24 14:45:45;;;;;;;2.42;1.13;;;3.30;88.90;;;;;;5953824;24;20017;-77
2023/01/24 14:48:16;;;;;;;1.85;1.20;;;3.30;88.90;;;;;;6005355;23;20016;-78
2023/01/24 14:50:42;;;;;;;2.38;1.30;;;3.30;88.80;;;;;;6004804;23;21269;-78
2023/01/24 14:53:27;;;;;;;1.60;1.25;;;3.30;88.90;;;;;;6030616;23;20563;-78
2023/01/24 14:56:26;;;;;;;2.33;1.40;;;3.30;89.00;;;;;;6075618;23;20022;-77
2023/01/24 14:58:54;;;;;;;2.13;1.00;;;3.30;89.00;;;;;;6076099;23;20013;-76
2023/01/24 15:01:38;;;;;;;1.73;1.00;;;3.20;89.00;;;;;;6167160;23;20028;-78
2023/01/24 15:11:33;;;;;;;2.05;1.15;;;3.20;89.10;;;;;;5991522;24;20047;-78
2023/01/24 15:14:08;;;;;;;2.45;1.50;;;3.10;89.00;;;;;;5946451;24;20048;-76
2023/01/24 15:16:37;;;;;;;2.20;1.30;;;3.10;89.00;;;;;;5946007;24;20096;-77
2023/01/24 15:19:06;;;;;;;1.55;0.95;;;3.10;89.00;;;;;;5959418;24;20016;-75
2023/01/24 15:21:38;;;;;;;2.88;1.27;;;3.10;89.00;;;;;;5970059;24;20460;-76
2023/01/24 15:24:06;;;;;;;2.10;1.17;;;3.00;89.00;;;;;;5949964;24;20121;-76
2023/01/24 15:26:40;;;;;;;2.15;1.20;;;3.00;89.10;;;;;;5910304;24;20187;-75
2023/01/24 15:29:42;;;;;;;1.98;1.20;;;3.00;89.10;;;;;;5891357;24;20016;-77
2023/01/24 15:32:56;;;;;;;1.00;0.90;;;3.00;89.10;;;;;;5932844;24;20045;-77
2023/01/24 15:35:45;;;;;;;1.42;1.10;;;3.00;89.10;;;;;;5900448;24;20025;-77
2023/01/24 15:38:25;;;;;;;1.88;1.08;;;3.00;89.10;;;;;;5918190;24;20021;-80
2023/01/24 15:44:36;;;;;;;1.42;1.13;;;2.90;89.10;;;;;;5972840;24;20107;-77
2023/01/24 15:53:27;;;;;;;1.75;1.17;;;2.80;89.00;;;;;;5963416;24;20071;-78
2023/01/24 15:55:59;;;;;;;2.70;1.35;;;2.80;89.10;;;;;;5983698;24;20370;-78
2023/01/24 15:58:24;;;;;;;2.03;1.35;;;2.80;89.10;;;;;;6053493;23;20011;-78
2023/01/24 16:00:53;;;;;;;1.58;1.10;;;2.80;89.20;;;;;;6051707;23;20017;-78
2023/01/24 16:03:19;;;;;;;2.45;1.48;;;2.70;89.20;;;;;;6053421;23;20011;-78
2023/01/24 16:05:44;;;;;;;2.47;1.27;;;2.70;89.20;;;;;;6058287;23;20037;-78
2023/01/24 16:08:10;;;;;;;2.45;1.20;;;2.70;89.20;;;;;;6028089;23;20379;-78
2023/01/24 16:10:36;;;;;;;2.38;1.33;;;2.70;89.30;;;;;;6061956;23;20042;-78
2023/01/24 16:13:02;;;;;;;1.98;1.30;;;2.70;89.30;;;;;;6178330;23;19993;-79
2023/01/24 16:15:28;;;;;;;1.30;1.05;;;2.60;89.30;;;;;;6185964;23;20024;-80
2023/01/24 16:17:53;;;;;;;2.78;1.42;;;2.70;89.30;;;;;;6159883;23;20019;-78
2023/01/24 16:20:26;;;;;;;2.75;1.67;;;2.70;89.30;;;;;;6174749;23;20005;-78
2023/01/24 16:22:53;;;;;;;2.65;1.35;;;2.60;89.30;;;;;;6183441;23;20004;-78
2023/01/24 16:25:20;;;;;;;2.42;1.45;;;2.60;89.30;;;;;;6160767;23;20029;-78
2023/01/24 16:27:46;;;;;;;2.40;1.38;;;2.60;89.30;;;;;;6149767;23;20020;-78
2023/01/24 16:30:17;;;;;;;2.80;1.42;;;2.60;89.30;;;;;;6172195;23;19989;-77
2023/01/24 16:32:44;;;;;;;2.58;1.30;;;2.60;89.30;;;;;;6174811;23;20015;-78
2023/01/24 16:35:10;;;;;;;2.75;1.48;;;2.60;89.20;;;;;;6177077;23;20013;-78
2023/01/24 16:37:35;;;;;;;2.45;1.40;;;2.50;89.10;;;;;;6175883;23;19986;-78
2023/01/24 18:08:00;;;;;;;2.47;1.00;;;2.40;89.20;;;;;;6179376;22;20488;-81
2023/01/24 18:10:25;;;;;;;1.58;1.00;;;2.40;89.20;;;;;;6102513;23;20025;-81
2023/01/24 18:12:51;;;;;;;1.88;0.90;;;2.40;89.20;;;;;;6153562;23;20020;-82
2023/01/24 18:15:17;;;;;;;1.38;0.85;;;2.40;89.30;;;;;;6127016;23;20018;-81
2023/01/24 18:17:43;;;;;;;1.42;0.70;;;2.40;89.30;;;;;;6127646;23;20072;-81
2023/01/24 18:20:54;;;;;;;2.00;1.05;;;2.40;89.30;;;;;;6126392;23;20009;-84
2023/01/24 18:23:37;;;;;;;2.00;0.95;;;2.40;89.40;;;;;;6091589;23;20370;-82
2023/01/24 18:26:03;;;;;;;1.58;1.08;;;2.40;89.30;;;;;;6015925;23;20085;-80
2023/01/24 18:28:35;;;;;;;1.33;0.95;;;2.40;89.30;;;;;;6015347;23;20069;-80